createdAt,value
2023-03-12T00:06:10.718Z,2.1
2023-03-12T00:34:45.414Z,1.8
2023-03-12T01:04:02.813Z,1.5
2023-03-12T01:33:10.956Z,1.7
2023-03-12T02:02:28.867Z,1.9
2023-03-12T02:31:46.941Z,1.9
2023-03-12T03:00:43.364Z,2.1
2023-03-12T03:29:58.670Z,2.2
2023-03-12T03:59:10.232Z,2.6
2023-03-12T04:28:27.758Z,2.3
2023-03-12T04:57:44.696Z,2.2
2023-03-12T05:26:54.377Z,2.2
2023-03-12T05:56:15.010Z,2.1
2023-03-12T06:25:34.467Z,2.1
2023-03-12T06:54:54.872Z,2.3
2023-03-12T07:24:13.410Z,2.7
2023-03-12T07:53:32.534Z,3.3
2023-03-12T08:22:55.963Z,3.8
2023-03-12T08:52:17.660Z,4.6
2023-03-12T09:21:40.649Z,6.7
2023-03-12T09:51:03.014Z,9.4
2023-03-12T10:20:36.571Z,10.2
2023-03-12T10:50:08.524Z,11.2
2023-03-12T11:19:30.577Z,12
2023-03-12T11:48:50.704Z,11.6
2023-03-12T12:17:59.947Z,11.4
2023-03-12T12:47:12.398Z,11.4
2023-03-12T13:16:32.391Z,12
2023-03-12T13:45:55.591Z,12.8
2023-03-12T14:15:14.825Z,12.9
2023-03-12T14:44:41.478Z,12.9
2023-03-12T15:14:05.612Z,13
2023-03-12T15:43:25.480Z,12.8
2023-03-12T16:12:50.781Z,12.7
2023-03-12T16:42:16.905Z,12.5
2023-03-12T17:11:25.790Z,12.1
2023-03-12T17:40:39.941Z,11.8
2023-03-12T18:09:54.618Z,11.5
2023-03-12T18:39:10.532Z,11.1
2023-03-12T19:08:25.592Z,10.7
2023-03-12T19:37:34.748Z,10.5
2023-03-12T20:06:51.186Z,10.4
2023-03-12T20:36:11.853Z,10.1
2023-03-12T21:05:25.376Z,10
2023-03-12T21:34:32.023Z,10.2
2023-03-12T22:03:55.229Z,10.5
2023-03-12T22:33:16.825Z,10.7
2023-03-12T23:02:28.528Z,10.8
2023-03-12T23:31:46.756Z,10.9
